Time;durP1;ratioP1;P1;durP2;ratioP2;P2;SDS_P1;SDS_P2;PMS_P1;PMS_P2;Temp;Humidity;BMP_temperature;BMP_pressure;BME280_temperature;BME280_humidity;BME280_pressure;Samples;Min_cycle;Max_cycle;Signal;HPM_P1;HPM_P2
2022/09/28 00:00:25;;;;;;;36.37;26.07;;;;;;;16.76;71.36;99051.24;1757588;80;21661;-72
2022/09/28 00:02:56;;;;;;;36.43;25.37;;;;;;;16.78;71.31;99051.67;1761624;80;21057;-73
2022/09/28 00:05:26;;;;;;;33.70;25.00;;;;;;;16.81;71.37;99059.10;1737023;82;21750;-72
2022/09/28 00:07:55;;;;;;;33.77;24.50;;;;;;;16.80;71.25;99074.50;1757124;80;20934;-72
2022/09/28 00:10:22;;;;;;;36.43;26.23;;;;;;;16.71;71.36;99062.98;1736884;82;20978;-73
2022/09/28 00:12:50;;;;;;;33.57;25.30;;;;;;;16.71;71.36;99062.98;1772504;80;21458;-73
2022/09/28 00:15:18;;;;;;;36.40;25.60;;;;;;;16.76;71.42;99057.98;1767287;81;21576;-72
2022/09/28 00:17:44;;;;;;;35.33;25.43;;;;;;;16.76;71.42;99057.98;1780257;79;21124;-72
2022/09/28 00:20:11;;;;;;;34.60;24.93;;;;;;;16.78;71.15;99063.81;1736351;82;21108;-72
2022/09/28 00:22:38;;;;;;;35.00;24.30;;;;;;;16.82;71.19;99070.13;1733546;81;21485;-73
2022/09/28 00:25:06;;;;;;;32.63;24.27;;;;;;;16.80;70.97;99061.02;1738549;81;21470;-72
2022/09/28 00:27:33;;;;;;;33.23;24.57;;;;;;;16.80;70.97;99061.02;1756668;80;20934;-71
2022/09/28 00:30:00;;;;;;;31.40;24.17;;;;;;;16.85;70.88;99069.47;1736931;82;22241;-72
2022/09/28 00:32:27;;;;;;;31.93;24.77;;;;;;;16.85;70.88;99069.47;1757835;80;20943;-72
2022/09/28 00:34:54;;;;;;;33.87;24.80;;;;;;;16.85;70.98;99077.55;1739080;81;21775;-71
2022/09/28 00:37:21;;;;;;;27.13;20.83;;;;;;;16.81;70.95;99082.83;1758933;79;21583;-72
2022/09/28 00:39:48;;;;;;;32.43;24.47;;;;;;;16.75;70.94;99073.38;1738951;81;20955;-71
2022/09/28 00:42:20;;;;;;;31.17;23.17;;;;;;;16.72;70.90;99079.41;1782149;80;21665;-71
2022/09/28 00:44:51;;;;;;;31.73;25.17;;;;;;;16.70;70.96;99076.81;1752359;80;22203;-72
2022/09/28 00:47:50;;;;;;;;;;;;;;;16.71;71.00;99070.29;1757561;81;21013;-72
2022/09/28 00:50:29;;;;;;;33.87;24.90;;;;;;;16.78;70.84;99063.28;1737085;82;20164;-71
2022/09/28 00:53:02;;;;;;;32.43;24.63;;;;;;;16.78;70.84;99063.28;1754605;81;21423;-72
2022/09/28 00:55:58;;;;;;;30.80;24.33;;;;;;;16.79;70.87;99062.70;1736947;82;21773;-73
2022/09/28 00:58:31;;;;;;;32.40;25.37;;;;;;;16.81;70.85;99064.49;1753961;81;21682;-72
2022/09/28 01:00:58;;;;;;;35.93;25.93;;;;;;;16.78;70.73;99054.38;1736588;82;21779;-72
2022/09/28 01:03:27;;;;;;;33.03;24.00;;;;;;;16.74;70.69;99050.75;1754887;81;21646;-72
2022/09/28 01:05:58;;;;;;;33.23;24.83;;;;;;;16.73;70.67;99051.88;1736671;82;21079;-72
2022/09/28 01:08:29;;;;;;;36.37;25.47;;;;;;;16.67;70.64;99059.39;1754960;81;21178;-72
2022/09/28 01:10:58;;;;;;;32.57;24.30;;;;;;;16.63;70.74;99057.92;1714021;82;21548;-72
2022/09/28 01:13:26;;;;;;;32.87;26.60;;;;;;;16.65;70.78;99061.08;1733809;81;21079;-73
2022/09/28 01:16:14;;;;;;;32.63;25.40;;;;;;;16.69;70.83;99063.89;1742242;81;21015;-72
2022/09/28 01:19:21;;;;;;;33.23;24.17;;;;;;;16.71;70.75;99059.50;1786098;80;21624;-72
2022/09/28 01:21:56;;;;;;;33.20;25.73;;;;;;;16.71;70.54;99062.98;1763294;81;21181;-72
2022/09/28 01:24:41;;;;;;;33.20;25.50;;;;;;;16.71;70.65;99060.84;1785430;80;21011;-72
2022/09/28 01:27:43;;;;;;;33.03;24.23;;;;;;;16.86;70.27;99065.07;1742748;81;21633;-72
2022/09/28 01:30:17;;;;;;;31.73;25.17;;;;;;;16.86;70.27;99065.07;1786022;80;20979;-72
2022/09/28 01:33:00;;;;;;;32.67;24.97;;;;;;;16.85;70.03;99058.68;1753336;81;22273;-72
2022/09/28 01:35:35;;;;;;;32.50;25.57;;;;;;;16.83;69.89;99059.56;1753962;81;21742;-72
2022/09/28 01:38:11;;;;;;;31.33;24.23;;;;;;;16.78;69.95;99054.38;1723320;81;21549;-73
2022/09/28 01:40:37;;;;;;;35.30;25.13;;;;;;;16.74;69.93;99052.09;1779750;80;21069;-72
2022/09/28 01:43:27;;;;;;;33.17;24.57;;;;;;;16.11;71.38;99076.48;1749431;79;22209;-73
2022/09/28 01:46:13;;;;;;;33.63;26.17;;;;;;;15.97;72.07;99054.44;1736901;82;20998;-73
2022/09/28 01:48:50;;;;;;;32.83;24.17;;;;;;;16.42;71.45;99057.20;1757540;80;22124;-72
2022/09/28 01:51:46;;;;;;;30.60;24.20;;;;;;;16.67;70.74;99054.56;1741071;81;21732;-72
2022/09/28 01:54:22;;;;;;;34.57;25.03;;;;;;;16.66;70.81;99057.82;1771022;80;22051;-72
2022/09/28 01:56:57;;;;;;;33.73;24.50;;;;;;;16.71;70.72;99054.11;1754765;81;21579;-72
2022/09/28 01:59:30;;;;;;;31.70;24.27;;;;;;;16.75;70.66;99056.39;1736956;82;21654;-72
2022/09/28 02:02:04;;;;;;;33.50;24.50;;;;;;;16.79;70.52;99051.92;1761957;80;22042;-73
2022/09/28 02:04:45;;;;;;;30.97;23.47;;;;;;;16.81;70.36;99059.10;1737870;80;21656;-73
2022/09/28 02:07:17;;;;;;;30.13;23.77;;;;;;;16.80;70.27;99058.31;1777902;80;21626;-73
2022/09/28 02:09:51;;;;;;;34.03;24.80;;;;;;;16.74;70.24;99058.84;1767572;81;21690;-72
2022/09/28 02:12:44;;;;;;;33.57;24.70;;;;;;;16.69;70.24;99055.80;1767245;81;21014;-72
2022/09/28 02:15:19;;;;;;;32.07;24.33;;;;;;;16.65;70.28;99056.25;1785915;80;21649;-72
2022/09/28 02:17:47;;;;;;;30.80;24.50;;;;;;;16.60;70.45;99051.84;1766744;81;21658;-73
2022/09/28 02:20:16;;;;;;;33.67;23.83;;;;;;;16.60;70.45;99051.84;1778176;80;21085;-73
2022/09/28 02:22:48;;;;;;;31.73;24.10;;;;;;;16.63;70.50;99050.40;1736903;82;21735;-73
2022/09/28 02:25:50;;;;;;;31.83;24.23;;;;;;;16.67;70.71;99051.30;1754944;81;21680;-73
2022/09/28 02:28:17;;;;;;;31.40;23.57;;;;;;;16.67;70.71;99051.30;1736866;82;21101;-73
2022/09/28 02:30:44;;;;;;;31.77;24.80;;;;;;;16.71;70.40;99047.38;1754792;81;21658;-73
2022/09/28 02:33:15;;;;;;;29.43;23.20;;;;;;;16.73;70.37;99049.97;1736916;82;21708;-72
2022/09/28 02:35:42;;;;;;;32.45;24.67;;;;;;;16.75;70.31;99053.69;1740607;81;29025;-73
2022/09/28 02:38:11;;;;;;;29.97;23.40;;;;;;;16.73;70.35;99060.75;1748698;81;21089;-72
2022/09/28 02:40:40;;;;;;;33.37;24.23;;;;;;;16.85;70.03;99062.72;1775282;80;21777;-72
2022/09/28 02:43:25;;;;;;;27.00;22.37;;;;;;;16.89;69.91;99059.58;1736293;82;21661;-73
2022/09/28 02:46:15;;;;;;;29.90;23.77;;;;;;;16.92;69.81;99058.91;1755698;80;21688;-72
2022/09/28 02:49:27;;;;;;;30.63;23.90;;;;;;;16.94;69.78;99059.91;1738979;80;21688;-72
2022/09/28 02:52:35;;;;;;;32.17;23.60;;;;;;;16.98;69.67;99067.01;1757135;80;22106;-72
2022/09/28 02:55:26;;;;;;;33.30;23.30;;;;;;;16.94;69.67;99072.83;1730624;82;21754;-73
2022/09/28 02:58:08;;;;;;;33.37;24.37;;;;;;;16.91;69.70;99069.45;1759475;80;21635;-72
2022/09/28 03:00:40;;;;;;;33.42;24.18;;;;;;;16.87;69.66;99068.55;1760641;81;21735;-72
2022/09/28 03:03:41;;;;;;;34.63;25.40;;;;;;;16.80;69.59;99056.19;1757458;80;20946;-73
2022/09/28 03:06:13;;;;;;;32.73;24.30;;;;;;;16.71;69.59;99056.80;1737019;82;20951;-72
2022/09/28 03:08:52;;;;;;;33.90;25.27;;;;;;;16.69;69.56;99057.16;1756369;80;21108;-73
2022/09/28 03:11:24;;;;;;;32.87;25.30;;;;;;;16.64;69.75;99060.83;1713817;82;21565;-73
2022/09/28 03:13:52;;;;;;;31.27;24.60;;;;;;;16.67;69.79;99062.65;1754890;81;21567;-73
2022/09/28 03:16:20;;;;;;;32.90;25.30;;;;;;;16.74;69.70;99062.88;1736974;82;22266;-73
2022/09/28 03:18:49;;;;;;;32.93;25.93;;;;;;;16.72;69.68;99055.14;1736955;82;21695;-73
2022/09/28 03:21:16;;;;;;;32.00;24.57;;;;;;;16.65;69.70;99055.69;1713994;82;21620;-73
2022/09/28 03:23:43;;;;;;;35.63;27.57;;;;;;;16.52;70.00;99051.92;1736666;82;21676;-73
2022/09/28 03:26:11;;;;;;;34.23;26.93;;;;;;;16.44;70.20;99049.56;1754960;81;21631;-72
2022/09/28 03:28:38;;;;;;;33.87;26.27;;;;;;;16.45;70.38;99052.47;1737052;82;21723;-73
2022/09/28 03:31:06;;;;;;;34.87;26.50;;;;;;;16.43;70.49;99053.94;1754920;81;21644;-73
2022/09/28 03:33:35;;;;;;;33.47;25.93;;;;;;;16.39;70.55;99050.56;1746923;79;22436;-72
2022/09/28 03:36:04;;;;;;;36.57;27.80;;;;;;;16.35;70.66;99051.54;1766730;81;21713;-72
2022/09/28 03:38:32;;;;;;;33.57;25.87;;;;;;;16.29;70.72;99047.50;1786005;80;21607;-72
2022/09/28 03:41:00;;;;;;;35.27;26.23;;;;;;;16.25;70.85;99047.35;1743591;80;21707;-72
2022/09/28 03:43:29;;;;;;;36.90;26.90;;;;;;;16.27;70.82;99049.73;1736916;82;21723;-72
2022/09/28 03:45:59;;;;;;;34.57;26.23;;;;;;;16.31;70.70;99049.29;1754825;81;21610;-73
2022/09/28 03:48:29;;;;;;;36.50;26.83;;;;;;;16.27;70.72;99050.52;1736661;82;21644;-73
2022/09/28 03:50:59;;;;;;;37.73;28.00;;;;;;;16.26;70.79;99055.69;1736505;82;21665;-73
2022/09/28 03:53:26;;;;;;;36.37;27.20;;;;;;;16.25;70.90;99050.61;1737033;82;21645;-72
2022/09/28 03:55:52;;;;;;;37.77;27.53;;;;;;;16.28;71.03;99053.99;1749729;81;21822;-72
2022/09/28 03:58:20;;;;;;;36.67;26.37;;;;;;;16.36;71.10;99055.84;1751427;81;22205;-73
2022/09/28 04:00:48;;;;;;;34.00;27.37;;;;;;;16.43;71.10;99059.33;1755123;81;21668;-73
2022/09/28 04:03:15;;;;;;;35.07;26.03;;;;;;;16.48;71.07;99059.89;1739029;81;22225;-72
2022/09/28 04:05:50;;;;;;;33.47;25.73;;;;;;;16.56;70.95;99063.08;1755021;81;22105;-72
2022/09/28 04:08:19;;;;;;;34.57;26.73;;;;;;;16.31;71.54;99060.84;1739457;79;21747;-72
2022/09/28 04:10:47;;;;;;;33.30;26.17;;;;;;;15.94;72.89;99066.64;1759086;79;21645;-73
2022/09/28 04:13:14;;;;;;;33.93;25.37;;;;;;;15.91;73.32;99074.03;1767873;79;21550;-73
2022/09/28 04:15:42;;;;;;;33.67;25.40;;;;;;;16.59;71.66;99070.50;1739399;80;21857;-72
2022/09/28 04:18:10;;;;;;;35.60;26.33;;;;;;;16.71;71.07;99066.24;1753947;81;22063;-72
2022/09/28 04:20:44;;;;;;;32.43;24.93;;;;;;;16.75;70.79;99068.52;1732526;82;21789;-72
2022/09/28 04:23:16;;;;;;;34.18;25.92;;;;;;;16.77;70.60;99066.29;1754831;81;22013;-72
2022/09/28 04:25:46;;;;;;;33.57;25.70;;;;;;;16.83;70.47;99063.61;1737057;82;21529;-72
2022/09/28 04:30:57;;;;;;;32.50;24.53;;;;;;;16.87;70.25;99061.25;1736300;82;20991;-72
2022/09/28 04:33:25;;;;;;;31.50;24.67;;;;;;;16.86;70.10;99058.33;1757493;80;20981;-73
2022/09/28 04:35:52;;;;;;;32.93;25.03;;;;;;;16.88;70.13;99059.36;1755221;81;22032;-71
2022/09/28 04:38:20;;;;;;;31.57;24.30;;;;;;;16.88;70.13;99059.36;1737500;81;21046;-73
2022/09/28 04:40:48;;;;;;;29.37;23.57;;;;;;;16.90;69.89;99059.02;1738913;81;22206;-72
2022/09/28 04:43:15;;;;;;;29.73;23.00;;;;;;;16.91;69.86;99057.31;1755043;81;20982;-71
2022/09/28 04:45:43;;;;;;;29.80;23.80;;;;;;;16.39;71.23;99063.26;1738559;81;22263;-72
2022/09/28 04:48:16;;;;;;;32.50;24.10;;;;;;;16.21;71.87;99060.48;1757077;79;21702;-73
2022/09/28 04:50:56;;;;;;;33.00;24.07;;;;;;;16.45;71.53;99062.47;1721849;79;21804;-72
2022/09/28 04:53:36;;;;;;;31.40;24.47;;;;;;;16.87;70.27;99067.20;1770363;79;20957;-73
2022/09/28 04:56:12;;;;;;;29.40;23.00;;;;;;;16.97;69.93;99065.98;1768371;80;21125;-72
2022/09/28 04:58:41;;;;;;;31.57;23.93;;;;;;;17.01;69.80;99054.73;1785931;80;21006;-72
2022/09/28 05:01:12;;;;;;;32.27;24.90;;;;;;;16.98;70.09;99062.96;1767200;81;22248;-72
2022/09/28 05:03:41;;;;;;;29.87;23.47;;;;;;;16.90;70.28;99068.45;1763446;81;20975;-72
2022/09/28 05:06:12;;;;;;;30.03;23.03;;;;;;;17.09;69.83;99069.48;1784803;80;20990;-72
2022/09/28 05:08:42;;;;;;;28.73;22.87;;;;;;;17.16;69.77;99066.79;1767434;81;21167;-73
2022/09/28 05:11:11;;;;;;;31.30;24.70;;;;;;;17.16;69.54;99060.83;1785904;80;21026;-72
2022/09/28 05:13:42;;;;;;;31.50;24.27;;;;;;;16.86;70.10;99065.64;1718744;81;21600;-73
2022/09/28 05:16:12;;;;;;;28.20;22.63;;;;;;;16.71;70.61;99064.33;1754686;81;20978;-72
2022/09/28 05:18:44;;;;;;;33.30;24.60;;;;;;;16.79;70.44;99057.31;1736396;79;20979;-72
2022/09/28 05:21:12;;;;;;;30.87;24.23;;;;;;;16.79;70.52;99063.49;1754248;81;21045;-72
2022/09/28 05:23:42;;;;;;;31.87;24.03;;;;;;;16.83;70.60;99063.61;1736845;82;21601;-72
2022/09/28 05:26:09;;;;;;;30.87;24.30;;;;;;;16.85;70.64;99062.72;1754768;81;21890;-73
2022/09/28 05:28:35;;;;;;;30.13;23.10;;;;;;;16.93;70.77;99059.69;1736749;82;20963;-72
2022/09/28 05:31:20;;;;;;;32.63;23.27;;;;;;;16.99;70.75;99063.18;1693519;83;21114;-71
2022/09/28 05:33:48;;;;;;;29.20;22.07;;;;;;;17.05;70.74;99061.84;1694850;82;20971;-72
2022/09/28 05:36:15;;;;;;;31.23;23.60;;;;;;;17.03;71.04;99054.63;1784846;80;20931;-72
2022/09/28 05:38:42;;;;;;;31.73;25.10;;;;;;;17.32;70.61;99059.02;1766995;81;21224;-72
2022/09/28 05:41:09;;;;;;;29.50;23.50;;;;;;;17.28;70.87;99060.05;1785646;80;21014;-72
2022/09/28 05:43:37;;;;;;;28.83;22.87;;;;;;;17.33;70.86;99061.16;1766836;81;21030;-72
2022/09/28 05:46:05;;;;;;;26.67;22.07;;;;;;;17.45;70.27;99067.91;1786014;80;20975;-72
2022/09/28 05:48:34;;;;;;;29.53;22.63;;;;;;;17.42;70.12;99068.58;1767450;81;21062;-73
2022/09/28 05:51:02;;;;;;;28.90;22.63;;;;;;;17.50;69.88;99073.63;1785954;80;21514;-73
2022/09/28 05:53:29;;;;;;;31.80;23.87;;;;;;;17.56;69.82;99078.45;1767450;81;21038;-73
2022/09/28 05:55:58;;;;;;;30.27;23.90;;;;;;;17.65;69.69;99079.69;1785270;80;20966;-72
2022/09/28 05:58:24;;;;;;;29.47;22.47;;;;;;;17.73;69.38;99081.46;1767339;81;20970;-72
2022/09/28 06:00:56;;;;;;;29.33;23.17;;;;;;;17.79;69.01;99082.05;1774547;80;20966;-73
2022/09/28 06:03:23;;;;;;;31.25;23.27;;;;;;;18.01;68.19;99084.25;1736633;81;27663;-72
2022/09/28 06:05:50;;;;;;;28.67;23.03;;;;;;;18.15;67.68;99090.62;1755863;80;21476;-72
2022/09/28 06:08:18;;;;;;;29.20;23.63;;;;;;;18.21;67.31;99085.20;1760549;79;20990;-72
2022/09/28 06:10:47;;;;;;;28.60;22.90;;;;;;;18.19;67.29;99079.91;1738725;79;21494;-72
2022/09/28 06:13:14;;;;;;;28.83;21.80;;;;;;;18.27;67.14;99077.64;1757301;80;20978;-72
2022/09/28 06:15:41;;;;;;;27.10;20.93;;;;;;;18.26;66.93;99076.05;1739115;81;21504;-72
2022/09/28 06:18:15;;;;;;;26.83;20.13;;;;;;;18.28;66.58;99073.23;1756990;80;20958;-72
2022/09/28 06:20:56;;;;;;;24.83;20.60;;;;;;;18.36;65.96;99078.28;1721576;81;21454;-71
2022/09/28 06:23:37;;;;;;;27.05;19.60;;;;;;;18.40;65.50;99080.52;1767006;81;21002;-72
2022/09/28 06:26:05;;;;;;;25.33;19.70;;;;;;;18.43;65.15;99076.34;1785924;80;21509;-72
2022/09/28 06:28:32;;;;;;;26.13;20.17;;;;;;;18.48;64.80;99072.02;1743451;81;21423;-72
2022/09/28 06:31:00;;;;;;;22.57;18.70;;;;;;;18.53;64.55;99075.06;1786100;80;21545;-72
2022/09/28 06:33:29;;;;;;;22.03;18.20;;;;;;;18.57;64.27;99067.81;1767441;81;20999;-72
2022/09/28 06:35:58;;;;;;;21.67;17.37;;;;;;;18.57;63.75;99063.77;1786302;80;21026;-72
2022/09/28 06:38:26;;;;;;;19.57;15.63;;;;;;;18.57;63.48;99065.11;1744398;81;21505;-73
2022/09/28 06:40:56;;;;;;;19.97;15.37;;;;;;;18.32;63.91;99074.67;1785939;80;21260;-73
2022/09/28 06:43:23;;;;;;;15.40;12.63;;;;;;;18.28;63.75;99073.23;1767445;81;21010;-71
2022/09/28 06:46:09;;;;;;;16.57;14.20;;;;;;;18.25;63.20;99075.27;1767474;81;21562;-71
2022/09/28 06:48:53;;;;;;;24.87;18.80;;;;;;;18.28;62.76;99073.80;1786185;80;20979;-72
2022/09/28 06:51:21;;;;;;;26.73;20.20;;;;;;;18.31;62.87;99066.92;1760957;81;20994;-72
2022/09/28 06:53:52;;;;;;;23.93;18.33;;;;;;;18.31;63.16;99066.92;1781748;80;21150;-72
2022/09/28 06:56:23;;;;;;;23.73;18.20;;;;;;;18.31;63.06;99064.22;1765815;81;21003;-73
2022/09/28 06:58:55;;;;;;;22.33;18.40;;;;;;;18.31;62.95;99064.22;1768052;81;20963;-72
2022/09/28 07:01:23;;;;;;;23.10;18.90;;;;;;;18.33;62.86;99069.52;1765769;80;21072;-73
2022/09/28 07:03:51;;;;;;;24.43;18.87;;;;;;;18.36;62.84;99063.42;1764720;81;20986;-72
2022/09/28 07:06:37;;;;;;;24.50;18.23;;;;;;;18.41;62.88;99067.20;1767239;81;21142;-72
2022/09/28 07:09:14;;;;;;;18.30;15.93;;;;;;;18.47;62.93;99056.37;1756424;80;20919;-73
2022/09/28 07:12:03;;;;;;;18.63;14.93;;;;;;;18.48;62.83;99053.88;1765970;81;21557;-73
2022/09/28 07:14:35;;;;;;;17.10;14.27;;;;;;;18.57;62.63;99052.38;1764207;81;21790;-72
2022/09/28 07:17:04;;;;;;;14.83;12.53;;;;;;;18.68;62.26;99052.07;1786020;80;21434;-73
2022/09/28 07:19:31;;;;;;;15.60;13.47;;;;;;;18.69;61.51;99048.80;1767657;81;21147;-73
2022/09/28 07:21:57;;;;;;;14.87;13.00;;;;;;;18.65;61.09;99041.16;1785784;80;20971;-72
2022/09/28 07:24:24;;;;;;;14.93;12.27;;;;;;;18.64;60.97;99036.90;1767378;81;21065;-73
2022/09/28 07:27:10;;;;;;;13.17;10.13;;;;;;;18.69;60.75;99037.98;1767441;81;21078;-73
2022/09/28 07:29:41;;;;;;;12.47;9.98;;;;;;;18.77;60.42;99033.58;1763764;81;21006;-73
2022/09/28 07:32:12;;;;;;;12.65;10.68;;;;;;;18.87;59.86;99028.42;1766051;81;21122;-73
2022/09/28 07:34:43;;;;;;;12.78;10.28;;;;;;;18.96;59.42;99026.91;1782936;80;21466;-74
2022/09/28 07:37:17;;;;;;;12.98;10.90;;;;;;;19.03;59.01;99029.00;1765139;81;20951;-75
2022/09/28 07:42:32;;;;;;;14.63;12.23;;;;;;;19.12;58.36;99025.55;1768265;81;20958;-75
2022/09/28 07:44:59;;;;;;;16.37;13.20;;;;;;;19.14;58.00;99015.92;1768435;81;21253;-75
2022/09/28 07:47:26;;;;;;;19.03;15.13;;;;;;;19.18;58.03;99017.34;1788835;80;20924;-74
2022/09/28 07:50:10;;;;;;;18.87;15.90;;;;;;;19.20;58.41;99017.80;1680709;85;21114;-74
2022/09/28 07:52:55;;;;;;;20.63;16.87;;;;;;;19.30;58.82;99021.31;1751072;81;20975;-73
2022/09/28 07:55:24;;;;;;;19.85;16.87;;;;;;;19.39;59.09;99023.83;1746718;81;21168;-74
2022/09/28 07:58:06;;;;;;;19.53;16.13;;;;;;;19.54;59.25;99023.56;1767806;81;21137;-72
2022/09/28 08:00:51;;;;;;;21.13;16.03;;;;;;;19.75;58.98;99017.28;1767441;81;21072;-72
2022/09/28 08:03:22;;;;;;;19.30;16.57;;;;;;;19.99;58.91;99018.92;1786119;80;20955;-72
2022/09/28 08:05:49;;;;;;;19.80;15.83;;;;;;;20.20;58.50;99018.54;1767615;81;21827;-72
2022/09/28 08:08:17;;;;;;;19.63;14.37;;;;;;;20.37;57.85;99019.46;1763865;80;21085;-72
2022/09/28 08:10:45;;;;;;;16.53;13.70;;;;;;;20.54;57.46;99016.09;1786090;80;21149;-74
2022/09/28 08:13:19;;;;;;;16.80;14.50;;;;;;;20.70;56.39;99014.05;1719699;81;21104;-72
2022/09/28 08:15:53;;;;;;;15.60;12.53;;;;;;;20.88;55.81;99013.55;1754185;80;21032;-73
2022/09/28 08:18:22;;;;;;;15.23;12.53;;;;;;;20.99;54.36;99010.42;1736905;79;21025;-73
2022/09/28 08:23:37;;;;;;;15.70;13.10;;;;;;;21.05;53.50;99013.05;1764969;81;21091;-74
2022/09/28 08:26:06;;;;;;;17.60;12.87;;;;;;;20.97;53.25;99018.16;1785038;80;21003;-74
2022/09/28 08:28:34;;;;;;;16.50;13.20;;;;;;;21.02;53.49;99019.98;1767033;81;20963;-72
2022/09/28 08:31:06;;;;;;;14.20;12.20;;;;;;;21.15;52.55;99008.34;1757535;80;20971;-73
2022/09/28 08:33:33;;;;;;;14.37;11.00;;;;;;;21.07;51.65;99003.39;1738803;81;20978;-74
2022/09/28 08:36:19;;;;;;;13.07;11.20;;;;;;;20.95;51.55;99008.23;1749435;81;21263;-74
2022/09/28 08:39:01;;;;;;;15.23;11.50;;;;;;;20.78;51.62;99008.94;1777346;79;21458;-74
2022/09/28 08:41:48;;;;;;;13.27;10.57;;;;;;;20.79;51.87;99014.57;1727211;82;21137;-74
2022/09/28 08:44:38;;;;;;;11.47;10.17;;;;;;;20.82;51.61;99016.56;1756587;80;20906;-74
2022/09/28 08:50:26;;;;;;;12.23;10.57;;;;;;;20.80;51.33;99020.23;1757421;79;21265;-74
2022/09/28 08:53:03;;;;;;;14.43;11.33;;;;;;;20.88;51.67;99010.84;1736622;82;21058;-73
2022/09/28 08:55:36;;;;;;;14.67;11.53;;;;;;;21.04;51.59;99003.34;1735466;81;20959;-73
2022/09/28 08:58:27;;;;;;;15.13;11.43;;;;;;;21.16;51.45;98996.36;1715842;81;21093;-74
2022/09/28 09:00:53;;;;;;;14.33;11.50;;;;;;;21.14;51.01;98997.28;1750879;80;21023;-75
2022/09/28 09:03:34;;;;;;;16.07;11.97;;;;;;;21.32;51.22;99002.95;1767613;81;21177;-74
2022/09/28 09:06:26;;;;;;;13.00;11.37;;;;;;;21.51;51.17;98997.44;1732798;80;21108;-75
2022/09/28 09:09:10;;;;;;;13.98;10.18;;;;;;;21.65;50.36;98999.58;1767487;81;20955;-74
2022/09/28 09:11:44;;;;;;;13.03;10.20;;;;;;;21.84;50.43;99001.92;1785265;80;21044;-74
2022/09/28 09:14:34;;;;;;;12.00;9.73;;;;;;;22.08;49.98;99004.16;1735479;82;21547;-75
2022/09/28 09:17:22;;;;;;;11.73;10.00;;;;;;;22.30;49.29;99007.89;1765615;81;21163;-74
2022/09/28 09:20:17;;;;;;;15.67;11.90;;;;;;;22.47;48.43;99005.14;1782649;80;21627;-74
2022/09/28 09:22:58;;;;;;;12.43;10.10;;;;;;;22.63;47.76;98998.88;1767099;81;20959;-73
2022/09/28 09:25:35;;;;;;;11.50;9.83;;;;;;;22.75;48.44;99002.48;1786017;80;21068;-74
2022/09/28 09:28:32;;;;;;;13.80;11.00;;;;;;;22.89;47.10;98998.50;1760353;81;21441;-74
2022/09/28 09:31:13;;;;;;;10.17;8.57;;;;;;;23.00;47.88;98993.16;1736800;82;21249;-74
2022/09/28 09:33:56;;;;;;;12.27;10.10;;;;;;;23.31;46.74;98985.01;1754627;81;21000;-74
2022/09/28 09:36:57;;;;;;;12.43;10.30;;;;;;;23.42;45.41;98976.30;1736228;82;21486;-74
2022/09/28 09:40:00;;;;;;;13.37;11.23;;;;;;;23.39;45.86;98978.42;1755213;81;20990;-73
2022/09/28 09:43:23;;;;;;;14.87;11.40;;;;;;;23.46;46.19;98999.48;1700791;84;21045;-73
2022/09/28 09:46:41;;;;;;;14.80;10.27;;;;;;;23.40;46.16;98997.13;1702160;84;21796;-73
2022/09/28 09:49:30;;;;;;;15.47;11.20;;;;;;;23.34;45.94;99002.73;1705920;84;21137;-73
2022/09/28 09:52:15;;;;;;;13.37;10.27;;;;;;;23.17;45.72;99001.47;1754880;81;21539;-74
2022/09/28 09:54:50;;;;;;;14.73;11.70;;;;;;;23.00;45.98;99006.77;1731088;82;21344;-76
2022/09/28 09:57:23;;;;;;;15.63;12.40;;;;;;;22.84;46.42;99009.77;1779683;80;21034;-74
2022/09/28 10:00:02;;;;;;;16.23;12.70;;;;;;;22.76;46.58;99006.17;1766546;80;21502;-74
2022/09/28 10:02:33;;;;;;;18.15;13.25;;;;;;;22.70;47.22;99015.84;1787860;80;21009;-74
2022/09/28 10:05:19;;;;;;;18.20;12.73;;;;;;;22.67;47.65;99020.13;1791914;79;21092;-73
2022/09/28 10:07:54;;;;;;;18.83;12.60;;;;;;;22.65;47.42;99028.45;1794216;80;20985;-74
2022/09/28 10:10:27;;;;;;;17.50;12.30;;;;;;;22.56;47.33;99038.86;1735553;82;20973;-75
2022/09/28 10:12:55;;;;;;;18.20;12.93;;;;;;;22.39;47.67;99040.25;1765303;81;21423;-73
2022/09/28 10:15:29;;;;;;;16.50;12.73;;;;;;;22.30;47.91;99043.25;1764196;80;20993;-73
2022/09/28 10:18:08;;;;;;;17.90;13.40;;;;;;;22.23;48.11;99040.46;1734421;82;21009;-75
2022/09/28 10:20:40;;;;;;;16.07;11.87;;;;;;;22.16;48.59;99039.81;1730609;80;20957;-75
2022/09/28 10:23:27;;;;;;;15.03;11.47;;;;;;;22.15;48.89;99027.38;1793197;79;21544;-73
2022/09/28 10:26:06;;;;;;;15.70;10.43;;;;;;;22.17;48.65;99026.41;1793968;80;21200;-73
2022/09/28 10:28:54;;;;;;;13.77;10.90;;;;;;;22.18;48.40;99026.63;1767264;80;21065;-74
2022/09/28 10:31:48;;;;;;;12.60;9.90;;;;;;;22.15;48.46;99026.56;1786057;80;21020;-74
2022/09/28 10:34:22;;;;;;;12.13;9.77;;;;;;;22.12;48.52;99025.36;1767202;80;21501;-74
2022/09/28 10:36:54;;;;;;;15.27;10.23;;;;;;;21.93;48.93;99022.81;1786238;80;20919;-74
2022/09/28 10:39:52;;;;;;;11.83;9.68;;;;;;;21.91;48.79;99021.80;1786100;80;23975;-74
2022/09/28 10:42:29;;;;;;;13.67;10.17;;;;;;;21.84;48.92;99023.66;1785996;80;20924;-73
2022/09/28 10:45:13;;;;;;;14.70;10.10;;;;;;;21.85;49.17;99025.22;1786278;80;20984;-74
2022/09/28 10:47:41;;;;;;;12.23;9.73;;;;;;;21.82;49.36;99024.63;1786140;80;21525;-74
2022/09/28 10:50:23;;;;;;;12.87;9.60;;;;;;;21.78;49.41;99028.08;1764582;80;20986;-76
2022/09/28 10:52:52;;;;;;;13.47;9.67;;;;;;;21.77;49.46;99024.36;1785655;80;21282;-75
2022/09/28 10:55:28;;;;;;;13.28;10.08;;;;;;;21.73;49.64;99025.67;1783073;80;20972;-75
2022/09/28 10:57:55;;;;;;;12.90;9.80;;;;;;;21.74;49.78;99027.81;1786268;80;21512;-74
2022/09/28 11:00:39;;;;;;;12.97;9.47;;;;;;;21.74;49.91;99016.36;1786287;80;21026;-74
2022/09/28 11:03:25;;;;;;;12.05;9.78;;;;;;;21.74;50.08;99013.64;1785506;80;21461;-73
2022/09/28 11:06:02;;;;;;;13.63;9.83;;;;;;;21.89;50.19;99009.17;1786353;80;21323;-74
2022/09/28 11:08:37;;;;;;;12.93;11.17;;;;;;;21.83;50.09;99012.59;1786076;80;20908;-74
2022/09/28 11:11:13;;;;;;;14.17;10.30;;;;;;;21.82;50.17;99017.83;1755048;81;21564;-75
2022/09/28 11:14:02;;;;;;;12.87;10.80;;;;;;;21.79;50.02;99012.55;1755353;81;21049;-74
2022/09/28 11:16:33;;;;;;;13.25;11.12;;;;;;;21.73;50.23;99008.59;1754956;81;20982;-74
2022/09/28 11:19:24;;;;;;;12.60;10.60;;;;;;;21.68;50.54;99008.32;1755116;81;21417;-74
2022/09/28 11:21:51;;;;;;;13.27;11.47;;;;;;;21.45;50.99;99008.41;1755003;81;21465;-76
2022/09/28 11:24:22;;;;;;;14.57;11.00;;;;;;;21.36;51.31;99008.50;1755340;81;20950;-74
2022/09/28 11:26:55;;;;;;;14.95;11.68;;;;;;;21.45;51.22;99013.06;1782111;80;21011;-75
2022/09/28 11:29:41;;;;;;;14.43;12.70;;;;;;;21.49;51.21;99011.98;1786527;80;20935;-74
2022/09/28 11:32:20;;;;;;;14.10;12.43;;;;;;;21.47;51.34;99012.13;1786541;80;21117;-75
2022/09/28 11:34:49;;;;;;;16.57;13.30;;;;;;;21.53;51.66;99013.38;1759902;80;21093;-74
2022/09/28 11:37:33;;;;;;;16.30;13.37;;;;;;;21.63;51.77;99014.09;1767841;81;20908;-74
2022/09/28 11:40:30;;;;;;;15.20;12.53;;;;;;;21.76;51.57;99015.42;1768054;81;21021;-75
2022/09/28 11:43:21;;;;;;;14.73;13.13;;;;;;;21.89;51.20;99009.76;1742981;81;21041;-74
2022/09/28 11:46:03;;;;;;;14.93;13.03;;;;;;;21.96;51.04;99003.82;1743724;81;21694;-76
2022/09/28 11:48:45;;;;;;;16.07;13.73;;;;;;;22.03;50.95;99009.91;1743864;81;21062;-73
2022/09/28 11:51:29;;;;;;;15.57;13.40;;;;;;;22.07;50.69;99011.31;1786260;80;21031;-76
2022/09/28 11:54:27;;;;;;;14.43;12.93;;;;;;;22.14;50.71;99008.66;1767525;81;20945;-75
2022/09/28 11:56:54;;;;;;;13.67;12.23;;;;;;;22.22;50.47;99015.20;1786103;80;21026;-75
2022/09/28 11:59:35;;;;;;;14.13;12.40;;;;;;;22.31;50.43;99012.75;1767884;81;21094;-74
2022/09/28 12:02:12;;;;;;;13.83;12.37;;;;;;;22.37;50.49;99017.48;1733901;81;21482;-73
2022/09/28 12:05:08;;;;;;;13.37;11.67;;;;;;;22.46;50.47;99022.62;1754614;81;20986;-75